createdAt,value
2022-11-26T00:02:21.585Z,101596.25
2022-11-26T00:04:54.250Z,101606.34
2022-11-26T00:07:25.937Z,101618.53
2022-11-26T00:09:56.349Z,101613.38
2022-11-26T00:12:25.715Z,101622.03
2022-11-26T00:14:52.706Z,101625.09
2022-11-26T00:17:22.963Z,101630.84
2022-11-26T00:19:51.873Z,101626.38
2022-11-26T00:22:27.427Z,101628.19
2022-11-26T00:25:01.647Z,101636.59
2022-11-26T00:27:28.648Z,101637.44
2022-11-26T00:29:55.729Z,101634.66
2022-11-26T00:32:26.001Z,101642.03
2022-11-26T00:34:53.281Z,101648.22
2022-11-26T00:37:21.486Z,101645.16
2022-11-26T00:39:48.527Z,101664.88
2022-11-26T00:42:15.201Z,101659.28
2022-11-26T00:44:49.306Z,101669.47
2022-11-26T00:47:31.340Z,101675.94
2022-11-26T00:49:58.080Z,101684.34
2022-11-26T00:52:34.047Z,101688.81
2022-11-26T00:55:04.074Z,101685.72
2022-11-26T00:57:30.893Z,101681.53
2022-11-26T00:59:57.649Z,101693.69
2022-11-26T01:02:24.334Z,101700.81
2022-11-26T01:04:51.331Z,101692.69
2022-11-26T01:07:21.386Z,101685.84
2022-11-26T01:09:48.577Z,101704.75
2022-11-26T01:12:15.708Z,101709.38
2022-11-26T01:14:42.509Z,101717.03
2022-11-26T01:17:11.369Z,101715.41
2022-11-26T01:19:42.516Z,101717.91
2022-11-26T01:22:21.268Z,101728.41
2022-11-26T01:24:48.269Z,101724.63
2022-11-26T01:27:15.048Z,101722.63
2022-11-26T01:29:41.787Z,101735.97
2022-11-26T01:32:10.361Z,101744.94
2022-11-26T01:34:42.676Z,101718.44
2022-11-26T01:37:14.043Z,101739.88
2022-11-26T01:39:40.833Z,101752.88
2022-11-26T01:42:48.705Z,101772.06
2022-11-26T01:45:17.735Z,101775.28
2022-11-26T01:47:48.752Z,101768.75
2022-11-26T01:50:28.199Z,101789.03
2022-11-26T01:53:16.277Z,101788.19
2022-11-26T01:55:50.317Z,101788.47
2022-11-26T01:58:21.287Z,101782.03
2022-11-26T02:00:49.220Z,101786.94
2022-11-26T02:03:16.696Z,101792.53
2022-11-26T02:05:50.772Z,101810.06
2022-11-26T02:08:17.733Z,101791.75
2022-11-26T02:10:44.312Z,101798.72
2022-11-26T02:13:11.007Z,101798.53
2022-11-26T02:16:23.231Z,101811.41
2022-11-26T02:19:06.226Z,101809.88
2022-11-26T02:21:34.253Z,101817.81
2022-11-26T02:24:17.969Z,101817.44
2022-11-26T02:27:32.102Z,101816.13
2022-11-26T02:30:09.119Z,101824.13
2022-11-26T02:32:58.543Z,101821.59
2022-11-26T02:35:33.368Z,102169.97
2022-11-26T02:38:05.542Z,102186.06
2022-11-26T02:40:32.320Z,102197.91
2022-11-26T02:43:01.648Z,102198.53
2022-11-26T02:45:35.433Z,102208.78
2022-11-26T02:48:04.117Z,102216.53
2022-11-26T02:50:38.266Z,102229.34
2022-11-26T02:53:05.706Z,102206.25
2022-11-26T02:55:35.781Z,102208.69
2022-11-26T02:58:02.940Z,102207.25
2022-11-26T03:00:32.070Z,102218.63
2022-11-26T03:03:33.421Z,102203.28
2022-11-26T03:06:04.843Z,102192.75
2022-11-26T03:08:32.665Z,102180.69
2022-11-26T03:10:59.617Z,102191.06
2022-11-26T03:13:26.283Z,102191.69
2022-11-26T03:15:53.301Z,102214.16
2022-11-26T03:18:19.891Z,102226.25
2022-11-26T03:20:46.634Z,102232.28
2022-11-26T03:23:20.626Z,102246.88
2022-11-26T03:25:47.202Z,102222.63
2022-11-26T03:28:13.825Z,102197.50
2022-11-26T03:30:40.465Z,102203.38
2022-11-26T03:33:07.162Z,102168.75
2022-11-26T03:35:37.020Z,102203.38
2022-11-26T03:38:03.648Z,102230.44
2022-11-26T03:40:30.265Z,102240.84
2022-11-26T03:42:56.871Z,102201.22
2022-11-26T03:45:31.274Z,102221.50
2022-11-26T03:47:57.970Z,102214.41
2022-11-26T03:50:30.712Z,102230.94
2022-11-26T03:52:57.381Z,102221.66
2022-11-26T03:55:27.147Z,102220.53
2022-11-26T03:57:56.754Z,102218.03
2022-11-26T04:00:26.329Z,102217.41
2022-11-26T04:02:57.119Z,102213.06
2022-11-26T04:05:23.780Z,102218.75
2022-11-26T04:07:56.128Z,102226.22
2022-11-26T04:10:31.919Z,102212.22
2022-11-26T04:12:58.661Z,102228.16
2022-11-26T04:15:27.901Z,102221.25
2022-11-26T04:17:59.466Z,102217.06
2022-11-26T04:20:26.121Z,102227.78
2022-11-26T04:22:53.761Z,102242.50
2022-11-26T04:25:41.951Z,102249.44
2022-11-26T04:28:13.425Z,102243.63
2022-11-26T04:30:40.017Z,102248.47
2022-11-26T04:33:06.614Z,102263.91
2022-11-26T04:35:33.180Z,102241.22
2022-11-26T04:37:59.834Z,102260.31
2022-11-26T04:40:29.811Z,102245.19
2022-11-26T04:42:56.389Z,102260.66
2022-11-26T04:45:27.268Z,102271.66
2022-11-26T04:47:54.041Z,102268.88
2022-11-26T04:50:24.088Z,102284.47
2022-11-26T04:52:56.113Z,102286.50
2022-11-26T04:55:23.027Z,102286.75
2022-11-26T04:57:54.135Z,102288.91
2022-11-26T05:00:26.216Z,102297.38
2022-11-26T05:02:55.526Z,102308.38
2022-11-26T05:05:31.112Z,102315.88
2022-11-26T05:07:57.836Z,102328.22
2022-11-26T05:10:26.783Z,102319.84
2022-11-26T05:12:57.836Z,102318.28
2022-11-26T05:15:27.532Z,102318.16
2022-11-26T05:17:56.720Z,102332.06
2022-11-26T05:20:23.627Z,102337.25
2022-11-26T05:22:59.582Z,102346.44
2022-11-26T05:25:26.204Z,102344.50
2022-11-26T05:27:52.797Z,102343.44
2022-11-26T05:30:23.960Z,102265.13
2022-11-26T05:32:50.619Z,102318.16
2022-11-26T05:35:19.647Z,102306.47
2022-11-26T05:37:46.226Z,102304.75
2022-11-26T05:40:13.136Z,102299.78
2022-11-26T05:42:42.204Z,102298.25
2022-11-26T05:45:09.174Z,102301.63
2022-11-26T05:47:35.865Z,102305.25
2022-11-26T05:50:02.631Z,102308.38
2022-11-26T05:52:29.287Z,102296.06
2022-11-26T05:54:58.265Z,102310.44
2022-11-26T05:57:24.969Z,102314.28
2022-11-26T05:59:51.636Z,102309.94
2022-11-26T06:02:18.499Z,102314.28
2022-11-26T06:04:45.324Z,102323.13
2022-11-26T06:07:11.985Z,102319.84
2022-11-26T06:09:38.747Z,102319.50
2022-11-26T06:12:05.836Z,102320.22
2022-11-26T06:14:37.220Z,102315.38
2022-11-26T06:17:07.061Z,102324.09
2022-11-26T06:19:38.830Z,102301.97
2022-11-26T06:22:05.444Z,102308.97
2022-11-26T06:24:32.164Z,102295.69
2022-11-26T06:26:58.785Z,102311.88
2022-11-26T06:29:28.106Z,102273.69
2022-11-26T06:31:55.391Z,102294.84
2022-11-26T06:34:22.275Z,102298.81
2022-11-26T06:36:48.933Z,102299.44
2022-11-26T06:39:15.538Z,102310.19
2022-11-26T06:41:42.192Z,102308.63
2022-11-26T06:44:11.093Z,102308.25
2022-11-26T06:46:37.712Z,102310.31
2022-11-26T06:49:05.435Z,102333.03
2022-11-26T06:51:32.799Z,102336.16
2022-11-26T06:53:59.613Z,102305.59
2022-11-26T06:56:28.822Z,102252.34
2022-11-26T06:58:58.508Z,102328.19
2022-11-26T07:01:26.447Z,102333.25
2022-11-26T07:03:53.312Z,102338.56
2022-11-26T07:06:22.844Z,102337.25
2022-11-26T07:08:50.677Z,102338.84
2022-11-26T07:11:17.812Z,102337.00
2022-11-26T07:13:44.815Z,102335.78
2022-11-26T07:16:12.026Z,102339.91
2022-11-26T07:18:38.844Z,102333.84
2022-11-26T07:21:12.930Z,102336.19
2022-11-26T07:23:40.518Z,102323.38
2022-11-26T07:26:08.538Z,102327.25
2022-11-26T07:28:38.577Z,102330.47
2022-11-26T07:31:12.980Z,102330.88
2022-11-26T07:33:47.292Z,102345.22
2022-11-26T07:36:19.689Z,102340.78
2022-11-26T07:38:54.744Z,102334.09
2022-11-26T07:41:21.728Z,102346.44
2022-11-26T07:43:48.583Z,102349.09
2022-11-26T07:46:24.295Z,102356.47
2022-11-26T07:48:51.277Z,102367.84
2022-11-26T07:51:31.645Z,102360.25
2022-11-26T07:54:00.389Z,102384.63
2022-11-26T07:56:27.281Z,102392.50
2022-11-26T07:58:54.037Z,102382.44
2022-11-26T08:01:27.204Z,102387.03
2022-11-26T08:03:53.979Z,102387.53
2022-11-26T08:06:23.534Z,102398.66
2022-11-26T08:08:56.520Z,102401.34
2022-11-26T08:11:26.826Z,102410.88
2022-11-26T08:14:01.586Z,102414.50
2022-11-26T08:16:29.268Z,102412.09
2022-11-26T08:18:58.018Z,102413.91
2022-11-26T08:21:24.891Z,102411.84
2022-11-26T08:23:52.653Z,102414.28
2022-11-26T08:26:33.975Z,102418.38
2022-11-26T08:29:10.056Z,102422.16
2022-11-26T08:31:41.048Z,102417.56
2022-11-26T08:34:16.303Z,102425.63
2022-11-26T08:36:43.591Z,102422.50
2022-11-26T08:39:13.765Z,102428.31
2022-11-26T08:41:47.363Z,102430.97
2022-11-26T08:44:17.222Z,102423.22
2022-11-26T08:46:43.797Z,102433.63
2022-11-26T08:49:14.938Z,102442.09
2022-11-26T08:51:42.060Z,102447.19
2022-11-26T08:54:08.747Z,102439.81
2022-11-26T08:56:35.506Z,102441.50
2022-11-26T08:59:02.190Z,102440.88
2022-11-26T09:01:33.149Z,102452.25
2022-11-26T09:04:01.222Z,102454.81
2022-11-26T09:06:29.615Z,102456.50
2022-11-26T09:09:15.036Z,102447.69
2022-11-26T09:11:48.571Z,102458.94
2022-11-26T09:14:17.404Z,102463.41
2022-11-26T09:16:44.447Z,102460.03
2022-11-26T09:19:12.902Z,102463.03
2022-11-26T09:21:46.964Z,102483.84
2022-11-26T09:24:14.382Z,102476.97
2022-11-26T09:26:41.094Z,102482.78
2022-11-26T09:29:08.010Z,102492.69
2022-11-26T09:31:42.738Z,102497.41
2022-11-26T09:34:19.153Z,102508.53
2022-11-26T09:36:45.805Z,102516.03
2022-11-26T09:39:13.280Z,102522.44
2022-11-26T09:42:16.084Z,102526.91
2022-11-26T09:44:54.386Z,102536.97
2022-11-26T09:47:26.698Z,102537.94
2022-11-26T09:49:53.180Z,102538.91
2022-11-26T09:52:21.694Z,102553.03
2022-11-26T09:54:50.709Z,102557.28
2022-11-26T09:57:46.072Z,102564.81
2022-11-26T10:00:35.572Z,102569.75
2022-11-26T10:03:02.251Z,102577.97
2022-11-26T10:06:01.138Z,102580.88
2022-11-26T10:08:34.321Z,102593.22
2022-11-26T10:11:15.995Z,102596.84
2022-11-26T10:14:09.247Z,102583.03
2022-11-26T10:16:42.730Z,102584.75
2022-11-26T10:19:24.762Z,102588.03
2022-11-26T10:21:59.835Z,102600.00
2022-11-26T10:24:33.674Z,102601.09
2022-11-26T10:27:06.363Z,102596.50
2022-11-26T10:29:44.436Z,102600.72
2022-11-26T10:32:25.929Z,102607.16
2022-11-26T10:34:57.943Z,102612.00
2022-11-26T10:37:27.000Z,102615.16
2022-11-26T10:40:27.509Z,102612.09
2022-11-26T10:43:13.111Z,102618.41
2022-11-26T10:45:49.957Z,102603.38
2022-11-26T10:48:25.562Z,102608.38
2022-11-26T10:51:09.849Z,102605.09
2022-11-26T10:53:57.309Z,102605.94
2022-11-26T10:56:32.342Z,102605.47
2022-11-26T10:59:03.105Z,102617.19
2022-11-26T11:01:36.829Z,102627.34
2022-11-26T11:04:31.880Z,102622.16
2022-11-26T11:06:58.852Z,102624.34
2022-11-26T11:09:30.223Z,102636.72
2022-11-26T11:12:11.996Z,102639.13
2022-11-26T11:14:43.200Z,102643.16
2022-11-26T11:17:32.367Z,102638.44
2022-11-26T11:20:29.430Z,102643.56
2022-11-26T11:23:06.671Z,102658.19
2022-11-26T11:25:35.581Z,102657.50
2022-11-26T11:28:11.722Z,102650.81
2022-11-26T11:30:40.381Z,102664.28
2022-11-26T11:33:19.503Z,102657.75
2022-11-26T11:36:13.362Z,102652.78
2022-11-26T11:38:55.088Z,102649.50
2022-11-26T11:41:33.824Z,102646.75
2022-11-26T11:44:05.847Z,102652.78
2022-11-26T11:47:00.115Z,102647.47
2022-11-26T11:49:38.070Z,102640.94
2022-11-26T11:52:14.028Z,102635.59
2022-11-26T11:54:58.076Z,102643.59
2022-11-26T11:57:42.796Z,102646.59
2022-11-26T12:00:17.334Z,102647.22
2022-11-26T12:02:48.115Z,102645.03
2022-11-26T12:05:30.051Z,102652.41
2022-11-26T12:08:26.081Z,102650.47
2022-11-26T12:11:17.021Z,102651.09
2022-11-26T12:13:49.286Z,102652.78
2022-11-26T12:16:19.572Z,102644.28
2022-11-26T12:19:00.185Z,102638.00
2022-11-26T12:21:48.580Z,102631.81
2022-11-26T12:24:22.631Z,102634.84
2022-11-26T12:26:54.960Z,102641.13
2022-11-26T12:29:29.300Z,102647.09
2022-11-26T12:32:05.316Z,102643.81
2022-11-26T12:34:35.146Z,102654.34
2022-11-26T12:37:04.598Z,102648.16
2022-11-26T12:39:52.029Z,102645.63
2022-11-26T12:42:34.053Z,102643.06
2022-11-26T12:45:19.473Z,102653.38
2022-11-26T12:47:54.748Z,102649.09
2022-11-26T12:50:29.588Z,102652.72
2022-11-26T12:53:23.479Z,102647.78
2022-11-26T12:55:50.153Z,102637.22
2022-11-26T12:58:27.535Z,102640.88
2022-11-26T13:00:55.560Z,102643.28
2022-11-26T13:03:28.774Z,102640.72
2022-11-26T13:06:01.636Z,102645.81
2022-11-26T13:08:49.500Z,102652.13
2022-11-26T13:12:00.982Z,102653.19
2022-11-26T13:14:42.054Z,102654.25
2022-11-26T13:17:17.060Z,102652.44
2022-11-26T13:19:54.064Z,102663.78
2022-11-26T13:22:35.921Z,102662.81
2022-11-26T13:25:26.808Z,102663.19
2022-11-26T13:28:03.771Z,102653.84
2022-11-26T13:30:56.535Z,102649.09
2022-11-26T13:33:51.711Z,102643.06
2022-11-26T13:36:47.712Z,102637.72
2022-11-26T13:39:46.604Z,102625.75
2022-11-26T13:42:28.553Z,102623.94
2022-11-26T13:45:09.235Z,102609.41
2022-11-26T13:47:52.924Z,102608.81
2022-11-26T13:50:25.724Z,102619.72
2022-11-26T13:52:58.476Z,102616.44
2022-11-26T13:55:49.875Z,102603.22
2022-11-26T13:58:24.238Z,102595.59
2022-11-26T14:00:54.048Z,102601.69
2022-11-26T14:03:46.731Z,102591.75
2022-11-26T14:06:22.081Z,102596.00
2022-11-26T14:08:54.525Z,102585.09
2022-11-26T14:11:50.999Z,102590.06
2022-11-26T14:14:28.675Z,102575.63
2022-11-26T14:17:01.480Z,102570.09
2022-11-26T14:19:40.301Z,102577.75
2022-11-26T14:22:09.732Z,102575.06
2022-11-26T14:24:51.525Z,102564.88
2022-11-26T14:27:21.980Z,102561.34
2022-11-26T14:29:58.797Z,102564.00
2022-11-26T14:32:27.296Z,102561.06
2022-11-26T14:34:55.767Z,102561.84
2022-11-26T14:37:28.573Z,102556.59
2022-11-26T14:40:30.153Z,102552.81
2022-11-26T14:43:15.906Z,102548.25
2022-11-26T14:46:20.721Z,102548.72
2022-11-26T14:48:59.646Z,102539.69
2022-11-26T14:51:29.723Z,102537.47
2022-11-26T14:53:56.422Z,102537.84
2022-11-26T14:56:25.199Z,102529.59
2022-11-26T14:58:59.581Z,102532.88
2022-11-26T15:01:29.134Z,102529.34
2022-11-26T15:04:05.583Z,102521.34
2022-11-26T15:06:44.872Z,102515.88
2022-11-26T15:09:21.741Z,102516.00
2022-11-26T15:11:56.314Z,102505.72
2022-11-26T15:14:32.012Z,102517.53
2022-11-26T15:17:01.105Z,102498.47
2022-11-26T15:19:32.368Z,102501.97
2022-11-26T15:22:00.603Z,102497.75
2022-11-26T15:24:27.488Z,102498.75
2022-11-26T15:26:59.538Z,102494.22
2022-11-26T15:29:41.539Z,102482.13
2022-11-26T15:32:30.241Z,102483.25
2022-11-26T15:34:59.811Z,102472.69
2022-11-26T15:37:27.343Z,102468.34
2022-11-26T15:40:11.051Z,102465.56
2022-11-26T15:42:39.292Z,102458.00
2022-11-26T15:45:16.105Z,102454.81
2022-11-26T15:47:51.509Z,102452.78
2022-11-26T15:50:25.643Z,102447.16
2022-11-26T15:52:59.510Z,102448.78
2022-11-26T15:55:31.149Z,102454.88
2022-11-26T15:57:58.674Z,102445.78
2022-11-26T16:00:37.214Z,102438.56
2022-11-26T16:03:11.176Z,102437.66
2022-11-26T16:05:39.002Z,102441.06
2022-11-26T16:08:23.526Z,102429.25
2022-11-26T16:10:58.696Z,102426.00
2022-11-26T16:13:32.588Z,102415.97
2022-11-26T16:16:13.003Z,102420.34
2022-11-26T16:18:56.596Z,102430.22
2022-11-26T16:21:27.598Z,102420.94
2022-11-26T16:23:58.202Z,102421.06
2022-11-26T16:26:28.542Z,102412.34
2022-11-26T16:28:55.385Z,102410.75
2022-11-26T16:31:22.400Z,102418.47
2022-11-26T16:33:57.703Z,102406.47
2022-11-26T16:36:26.661Z,102400.94
2022-11-26T16:38:53.474Z,102403.28
2022-11-26T16:41:29.210Z,102398.22
2022-11-26T16:43:58.309Z,102404.22
2022-11-26T16:46:27.680Z,102395.94
2022-11-26T16:48:57.300Z,102393.84
2022-11-26T16:51:23.917Z,102383.06
2022-11-26T16:53:50.985Z,102371.16
2022-11-26T16:56:37.232Z,102375.06
2022-11-26T16:59:22.795Z,102359.84
2022-11-26T17:01:49.526Z,102354.03
2022-11-26T17:04:18.731Z,102348.16
2022-11-26T17:06:45.628Z,102336.84
2022-11-26T17:09:26.618Z,102329.81
2022-11-26T17:11:53.364Z,102328.69
2022-11-26T17:14:20.060Z,102318.09
2022-11-26T17:16:47.002Z,102313.69
2022-11-26T17:19:15.151Z,102303.72
2022-11-26T17:21:48.082Z,102305.94
2022-11-26T17:24:17.618Z,102317.06
2022-11-26T17:26:45.676Z,102312.88
2022-11-26T17:29:17.148Z,102307.25
2022-11-26T17:34:32.525Z,102299.81
2022-11-26T17:37:36.350Z,102296.56
2022-11-26T17:40:13.326Z,102285.47
2022-11-26T17:43:24.064Z,102277.50
2022-11-26T17:45:50.765Z,102263.53
2022-11-26T17:48:17.387Z,102277.50
2022-11-26T17:50:44.100Z,102268.06
2022-11-26T17:53:14.246Z,102262.44
2022-11-26T17:55:40.906Z,102269.56
2022-11-26T17:58:11.179Z,102276.69
2022-11-26T18:00:41.152Z,102286.41
2022-11-26T18:03:07.956Z,102282.03
2022-11-26T18:05:37.908Z,102288.09
2022-11-26T18:08:18.784Z,102295.75
2022-11-26T18:13:40.988Z,102290.56
2022-11-26T18:16:29.535Z,102292.59
2022-11-26T18:18:56.334Z,102283.28
2022-11-26T18:21:23.054Z,102282.81
2022-11-26T18:24:15.269Z,102284.66
2022-11-26T18:26:42.682Z,102280.16
2022-11-26T18:29:13.104Z,102265.81
2022-11-26T18:31:40.278Z,102276.69
2022-11-26T18:34:32.256Z,102282.03
2022-11-26T18:36:58.869Z,102286.25
2022-11-26T18:39:25.478Z,102283.75
2022-11-26T18:41:54.561Z,102281.56
2022-11-26T18:44:24.078Z,102274.06
2022-11-26T18:46:50.717Z,102277.84
2022-11-26T18:49:17.408Z,102271.19
2022-11-26T18:51:44.744Z,102272.31
2022-11-26T18:54:11.338Z,102265.81
2022-11-26T18:56:37.950Z,102260.94
2022-11-26T18:59:04.540Z,102259.75
2022-11-26T19:01:32.057Z,102248.88
2022-11-26T19:03:59.337Z,102251.78
2022-11-26T19:06:28.845Z,102247.38
2022-11-26T19:09:01.448Z,102251.25
2022-11-26T19:11:28.917Z,102247.16
2022-11-26T19:13:56.545Z,102244.28
2022-11-26T19:16:24.060Z,102244.31
2022-11-26T19:18:50.779Z,102236.38
2022-11-26T19:21:21.640Z,102240.41
2022-11-26T19:23:49.301Z,102245.97
2022-11-26T19:26:16.639Z,102252.41
2022-11-26T19:28:43.592Z,102244.03
2022-11-26T19:31:13.121Z,102251.00
2022-11-26T19:33:40.488Z,102250.88
2022-11-26T19:36:09.784Z,102249.69
2022-11-26T19:38:37.057Z,102235.88
2022-11-26T19:41:06.297Z,102234.88
2022-11-26T19:43:35.350Z,102224.19
2022-11-26T19:46:09.130Z,102216.47
2022-11-26T19:48:37.749Z,102207.88
2022-11-26T19:51:05.781Z,102200.59
2022-11-26T19:53:33.127Z,102195.63
2022-11-26T19:56:04.324Z,102191.78
2022-11-26T19:58:32.659Z,102178.69
2022-11-26T20:00:59.630Z,102168.13
2022-11-26T20:03:26.343Z,102165.03
2022-11-26T20:05:52.937Z,102170.56
2022-11-26T20:08:19.536Z,102160.19
2022-11-26T20:10:49.924Z,102158.69
2022-11-26T20:13:16.787Z,102158.84
2022-11-26T20:15:48.359Z,102149.03
2022-11-26T20:18:17.884Z,102148.81
2022-11-26T20:20:48.645Z,102146.00
2022-11-26T20:23:15.270Z,102143.72
2022-11-26T20:25:41.984Z,102137.78
2022-11-26T20:28:09.126Z,102123.41
2022-11-26T20:30:37.656Z,102129.47
2022-11-26T20:33:07.741Z,102122.88
2022-11-26T20:35:34.388Z,102127.72
2022-11-26T20:38:01.004Z,102124.63
2022-11-26T20:40:27.662Z,102117.66
2022-11-26T20:42:54.299Z,102123.78
2022-11-26T20:45:32.783Z,102130.81
2022-11-26T20:48:16.196Z,102126.69
2022-11-26T20:50:42.808Z,102132.16
2022-11-26T20:53:09.472Z,102134.78
2022-11-26T20:55:59.150Z,102145.78
2022-11-26T20:58:26.587Z,102167.72
2022-11-26T21:00:55.283Z,102163.00
2022-11-26T21:03:25.942Z,102162.41
2022-11-26T21:06:09.300Z,102177.38
2022-11-26T21:08:57.442Z,102182.91
2022-11-26T21:11:27.927Z,102192.50
2022-11-26T21:13:54.848Z,102203.69
2022-11-26T21:16:22.530Z,102208.88
2022-11-26T21:19:14.151Z,102220.88
2022-11-26T21:21:41.907Z,102231.69
2022-11-26T21:24:10.188Z,102254.84
2022-11-26T21:26:36.848Z,102260.91
2022-11-26T21:31:44.213Z,102289.09
2022-11-26T21:34:15.120Z,102282.75
2022-11-26T21:36:44.899Z,102296.75
2022-11-26T21:39:15.155Z,102293.44
2022-11-26T21:41:41.877Z,102296.41
2022-11-26T21:44:09.264Z,102300.00
2022-11-26T21:46:38.664Z,102303.63
2022-11-26T21:49:07.080Z,102296.91
2022-11-26T21:51:33.921Z,102294.13
2022-11-26T21:54:00.621Z,102293.22
2022-11-26T21:56:29.934Z,102305.38
2022-11-26T21:58:57.855Z,102308.69
2022-11-26T22:01:26.144Z,102316.41
2022-11-26T22:03:54.697Z,102313.34
2022-11-26T22:06:23.303Z,102311.03
2022-11-26T22:08:51.878Z,102316.34
2022-11-26T22:11:24.045Z,102314.06
2022-11-26T22:13:51.698Z,102322.03
2022-11-26T22:16:23.862Z,102322.63
2022-11-26T22:18:52.279Z,102329.91
2022-11-26T22:21:21.919Z,102332.22
2022-11-26T22:23:52.416Z,102318.91
2022-11-26T22:26:21.108Z,102319.31
2022-11-26T22:28:49.754Z,102333.56
2022-11-26T22:31:19.871Z,102328.97
2022-11-26T22:33:46.872Z,102332.28
2022-11-26T22:36:13.921Z,102326.13
2022-11-26T22:38:41.312Z,102329.97
2022-11-26T22:41:13.659Z,102320.59
2022-11-26T22:43:41.189Z,102311.44
2022-11-26T22:46:10.558Z,102317.03
2022-11-26T22:48:37.273Z,102302.25
2022-11-26T22:51:06.507Z,102308.44
2022-11-26T22:53:36.816Z,102303.28
2022-11-26T22:56:04.149Z,102303.59
2022-11-26T22:58:31.872Z,102298.06
2022-11-26T23:01:06.836Z,102304.38
2022-11-26T23:03:35.580Z,102298.78
2022-11-26T23:06:08.362Z,102293.56
2022-11-26T23:08:39.064Z,102296.09
2022-11-26T23:11:25.950Z,102297.47
2022-11-26T23:13:54.039Z,102293.66
2022-11-26T23:16:32.552Z,102295.34
2022-11-26T23:22:41.579Z,102290.72
2022-11-26T23:25:09.168Z,102293.44
2022-11-26T23:27:35.840Z,102286.81
2022-11-26T23:30:02.694Z,102285.94
2022-11-26T23:32:32.938Z,102284.03
2022-11-26T23:35:05.321Z,102284.75
2022-11-26T23:37:40.826Z,102278.34
2022-11-26T23:40:13.517Z,102278.94
2022-11-26T23:42:40.254Z,102283.28
2022-11-26T23:45:12.887Z,102288.06
2022-11-26T23:47:40.414Z,102279.16
2022-11-26T23:50:08.060Z,102284.75
2022-11-26T23:52:35.494Z,102287.94
2022-11-26T23:55:02.407Z,102275.34
2022-11-26T23:57:29.040Z,102279.25
2022-11-26T23:59:55.700Z,102278.50
